sensor_id;sensor_type;location;lat;lon;timestamp;P1;durP1;ratioP1;P2;durP2;ratioP2
83429;SDS011;73362;50.952;6.952;2024-02-26T00:01:01;2.53;;;1.50;;
83429;SDS011;73362;50.952;6.952;2024-02-26T00:03:29;5.90;;;3.23;;
83429;SDS011;73362;50.952;6.952;2024-02-26T00:05:57;2.70;;;1.60;;
83429;SDS011;73362;50.952;6.952;2024-02-26T00:08:25;1.27;;;1.17;;
83429;SDS011;73362;50.952;6.952;2024-02-26T00:10:53;1.47;;;1.30;;
83429;SDS011;73362;50.952;6.952;2024-02-26T00:13:21;1.63;;;1.40;;
83429;SDS011;73362;50.952;6.952;2024-02-26T00:15:49;2.47;;;1.47;;
83429;SDS011;73362;50.952;6.952;2024-02-26T00:18:17;1.87;;;1.70;;
83429;SDS011;73362;50.952;6.952;2024-02-26T00:20:45;4.20;;;2.57;;
83429;SDS011;73362;50.952;6.952;2024-02-26T00:23:16;2.50;;;1.77;;
83429;SDS011;73362;50.952;6.952;2024-02-26T00:25:44;4.27;;;3.37;;
83429;SDS011;73362;50.952;6.952;2024-02-26T00:28:12;4.20;;;2.70;;
83429;SDS011;73362;50.952;6.952;2024-02-26T00:30:41;3.07;;;2.77;;
83429;SDS011;73362;50.952;6.952;2024-02-26T00:33:09;3.10;;;2.80;;
83429;SDS011;73362;50.952;6.952;2024-02-26T00:35:37;2.40;;;2.20;;
83429;SDS011;73362;50.952;6.952;2024-02-26T00:38:05;2.50;;;2.10;;
83429;SDS011;73362;50.952;6.952;2024-02-26T00:40:33;3.53;;;3.27;;
83429;SDS011;73362;50.952;6.952;2024-02-26T00:43:01;2.37;;;2.17;;
83429;SDS011;73362;50.952;6.952;2024-02-26T00:45:29;2.50;;;1.83;;
83429;SDS011;73362;50.952;6.952;2024-02-26T00:47:57;1.60;;;1.50;;
83429;SDS011;73362;50.952;6.952;2024-02-26T00:50:25;1.63;;;1.30;;
83429;SDS011;73362;50.952;6.952;2024-02-26T00:52:53;2.73;;;2.10;;
83429;SDS011;73362;50.952;6.952;2024-02-26T00:55:21;2.37;;;2.17;;
83429;SDS011;73362;50.952;6.952;2024-02-26T00:57:49;1.00;;;1.00;;
83429;SDS011;73362;50.952;6.952;2024-02-26T01:00:17;1.23;;;1.10;;
83429;SDS011;73362;50.952;6.952;2024-02-26T01:02:46;1.97;;;1.40;;
83429;SDS011;73362;50.952;6.952;2024-02-26T01:05:14;1.20;;;1.10;;
83429;SDS011;73362;50.952;6.952;2024-02-26T01:07:42;1.17;;;1.00;;
83429;SDS011;73362;50.952;6.952;2024-02-26T01:10:10;1.57;;;1.20;;
83429;SDS011;73362;50.952;6.952;2024-02-26T01:12:38;2.13;;;1.40;;
83429;SDS011;73362;50.952;6.952;2024-02-26T01:15:06;1.30;;;0.97;;
83429;SDS011;73362;50.952;6.952;2024-02-26T01:17:34;1.23;;;1.13;;
83429;SDS011;73362;50.952;6.952;2024-02-26T01:20:02;1.10;;;1.00;;
83429;SDS011;73362;50.952;6.952;2024-02-26T01:22:30;1.27;;;1.00;;
83429;SDS011;73362;50.952;6.952;2024-02-26T01:24:58;1.47;;;1.00;;
83429;SDS011;73362;50.952;6.952;2024-02-26T01:27:26;1.83;;;1.10;;
83429;SDS011;73362;50.952;6.952;2024-02-26T01:29:54;1.77;;;0.90;;
83429;SDS011;73362;50.952;6.952;2024-02-26T01:32:22;1.10;;;1.00;;
83429;SDS011;73362;50.952;6.952;2024-02-26T01:34:50;0.97;;;0.93;;
83429;SDS011;73362;50.952;6.952;2024-02-26T01:37:18;0.97;;;0.90;;
83429;SDS011;73362;50.952;6.952;2024-02-26T01:39:46;2.50;;;1.40;;
83429;SDS011;73362;50.952;6.952;2024-02-26T01:42:14;1.20;;;1.10;;
83429;SDS011;73362;50.952;6.952;2024-02-26T01:44:42;2.53;;;1.00;;
83429;SDS011;73362;50.952;6.952;2024-02-26T01:47:11;2.20;;;1.17;;
83429;SDS011;73362;50.952;6.952;2024-02-26T01:49:39;0.70;;;0.70;;
83429;SDS011;73362;50.952;6.952;2024-02-26T01:52:07;1.23;;;0.97;;
83429;SDS011;73362;50.952;6.952;2024-02-26T01:54:35;0.90;;;0.90;;
83429;SDS011;73362;50.952;6.952;2024-02-26T01:57:03;1.27;;;1.03;;
83429;SDS011;73362;50.952;6.952;2024-02-26T01:59:31;1.33;;;1.10;;
83429;SDS011;73362;50.952;6.952;2024-02-26T02:01:59;1.10;;;1.00;;
83429;SDS011;73362;50.952;6.952;2024-02-26T02:04:27;2.93;;;1.00;;
83429;SDS011;73362;50.952;6.952;2024-02-26T02:06:55;1.93;;;0.80;;
83429;SDS011;73362;50.952;6.952;2024-02-26T02:09:23;1.30;;;1.20;;
83429;SDS011;73362;50.952;6.952;2024-02-26T02:11:51;1.03;;;1.00;;
83429;SDS011;73362;50.952;6.952;2024-02-26T02:14:19;1.47;;;0.93;;
83429;SDS011;73362;50.952;6.952;2024-02-26T02:16:47;0.80;;;0.80;;
83429;SDS011;73362;50.952;6.952;2024-02-26T02:19:15;0.97;;;0.87;;
83429;SDS011;73362;50.952;6.952;2024-02-26T02:21:43;1.13;;;1.03;;
83429;SDS011;73362;50.952;6.952;2024-02-26T02:24:11;2.17;;;1.20;;
83429;SDS011;73362;50.952;6.952;2024-02-26T02:26:39;1.27;;;0.70;;
83429;SDS011;73362;50.952;6.952;2024-02-26T02:29:07;0.80;;;0.80;;
83429;SDS011;73362;50.952;6.952;2024-02-26T02:31:35;1.00;;;1.00;;
83429;SDS011;73362;50.952;6.952;2024-02-26T02:34:03;3.07;;;1.10;;
83429;SDS011;73362;50.952;6.952;2024-02-26T02:36:31;1.47;;;1.33;;
83429;SDS011;73362;50.952;6.952;2024-02-26T02:38:59;1.87;;;1.43;;
83429;SDS011;73362;50.952;6.952;2024-02-26T02:41:27;1.80;;;1.23;;
83429;SDS011;73362;50.952;6.952;2024-02-26T02:43:55;1.67;;;1.10;;
83429;SDS011;73362;50.952;6.952;2024-02-26T02:46:23;1.10;;;1.00;;
83429;SDS011;73362;50.952;6.952;2024-02-26T02:48:51;1.60;;;0.93;;
83429;SDS011;73362;50.952;6.952;2024-02-26T02:51:19;1.40;;;0.90;;
83429;SDS011;73362;50.952;6.952;2024-02-26T02:53:47;1.67;;;1.10;;
83429;SDS011;73362;50.952;6.952;2024-02-26T02:56:15;1.30;;;1.20;;
83429;SDS011;73362;50.952;6.952;2024-02-26T02:58:43;1.33;;;1.23;;
83429;SDS011;73362;50.952;6.952;2024-02-26T03:01:13;1.47;;;1.27;;
83429;SDS011;73362;50.952;6.952;2024-02-26T03:03:39;1.17;;;1.07;;
83429;SDS011;73362;50.952;6.952;2024-02-26T03:06:07;1.07;;;1.00;;
83429;SDS011;73362;50.952;6.952;2024-02-26T03:08:36;0.90;;;0.90;;
83429;SDS011;73362;50.952;6.952;2024-02-26T03:11:05;3.07;;;1.03;;
83429;SDS011;73362;50.952;6.952;2024-02-26T03:13:32;1.20;;;1.10;;
83429;SDS011;73362;50.952;6.952;2024-02-26T03:16:04;1.20;;;1.00;;
83429;SDS011;73362;50.952;6.952;2024-02-26T03:18:29;1.03;;;0.93;;
83429;SDS011;73362;50.952;6.952;2024-02-26T03:20:57;1.50;;;0.97;;
83429;SDS011;73362;50.952;6.952;2024-02-26T03:23:25;2.20;;;0.83;;
83429;SDS011;73362;50.952;6.952;2024-02-26T03:25:53;1.43;;;1.07;;
83429;SDS011;73362;50.952;6.952;2024-02-26T03:28:21;2.10;;;1.27;;
83429;SDS011;73362;50.952;6.952;2024-02-26T03:30:49;0.93;;;0.90;;
83429;SDS011;73362;50.952;6.952;2024-02-26T03:33:17;2.20;;;1.30;;
83429;SDS011;73362;50.952;6.952;2024-02-26T03:35:45;1.10;;;1.00;;
83429;SDS011;73362;50.952;6.952;2024-02-26T03:38:13;1.30;;;0.80;;
83429;SDS011;73362;50.952;6.952;2024-02-26T03:40:41;1.97;;;1.07;;
83429;SDS011;73362;50.952;6.952;2024-02-26T03:43:09;1.27;;;1.00;;
83429;SDS011;73362;50.952;6.952;2024-02-26T03:45:37;2.30;;;1.00;;
83429;SDS011;73362;50.952;6.952;2024-02-26T03:48:05;1.60;;;1.00;;
83429;SDS011;73362;50.952;6.952;2024-02-26T03:50:33;2.67;;;1.20;;
83429;SDS011;73362;50.952;6.952;2024-02-26T03:53:01;2.40;;;1.43;;
83429;SDS011;73362;50.952;6.952;2024-02-26T03:55:29;1.20;;;1.10;;
83429;SDS011;73362;50.952;6.952;2024-02-26T03:57:57;1.30;;;1.10;;
83429;SDS011;73362;50.952;6.952;2024-02-26T04:00:25;1.87;;;1.40;;
83429;SDS011;73362;50.952;6.952;2024-02-26T04:02:53;1.77;;;1.07;;
83429;SDS011;73362;50.952;6.952;2024-02-26T04:05:21;2.00;;;0.90;;
83429;SDS011;73362;50.952;6.952;2024-02-26T04:07:50;1.07;;;1.03;;
83429;SDS011;73362;50.952;6.952;2024-02-26T04:10:18;1.67;;;1.00;;
83429;SDS011;73362;50.952;6.952;2024-02-26T04:12:46;1.30;;;1.20;;
83429;SDS011;73362;50.952;6.952;2024-02-26T04:15:14;1.20;;;1.10;;
83429;SDS011;73362;50.952;6.952;2024-02-26T04:17:42;1.40;;;1.17;;
83429;SDS011;73362;50.952;6.952;2024-02-26T04:20:13;1.73;;;1.10;;
83429;SDS011;73362;50.952;6.952;2024-02-26T04:22:38;1.97;;;1.30;;
83429;SDS011;73362;50.952;6.952;2024-02-26T04:25:06;2.07;;;1.20;;
83429;SDS011;73362;50.952;6.952;2024-02-26T04:27:34;1.10;;;1.00;;
83429;SDS011;73362;50.952;6.952;2024-02-26T04:30:02;3.13;;;1.50;;
83429;SDS011;73362;50.952;6.952;2024-02-26T04:32:30;1.83;;;1.20;;
83429;SDS011;73362;50.952;6.952;2024-02-26T04:34:58;2.03;;;1.27;;
83429;SDS011;73362;50.952;6.952;2024-02-26T04:37:26;1.87;;;1.23;;
83429;SDS011;73362;50.952;6.952;2024-02-26T04:39:58;2.93;;;1.40;;
83429;SDS011;73362;50.952;6.952;2024-02-26T04:42:25;2.00;;;1.30;;
83429;SDS011;73362;50.952;6.952;2024-02-26T04:44:54;2.57;;;1.53;;
83429;SDS011;73362;50.952;6.952;2024-02-26T04:47:21;1.37;;;1.20;;
83429;SDS011;73362;50.952;6.952;2024-02-26T04:49:50;2.30;;;1.33;;
83429;SDS011;73362;50.952;6.952;2024-02-26T04:52:18;1.50;;;1.40;;
83429;SDS011;73362;50.952;6.952;2024-02-26T04:54:45;1.40;;;1.07;;
83429;SDS011;73362;50.952;6.952;2024-02-26T04:57:13;1.77;;;1.30;;
83429;SDS011;73362;50.952;6.952;2024-02-26T04:59:41;2.77;;;1.37;;
83429;SDS011;73362;50.952;6.952;2024-02-26T05:02:09;1.30;;;1.20;;
83429;SDS011;73362;50.952;6.952;2024-02-26T05:04:37;2.73;;;1.60;;
83429;SDS011;73362;50.952;6.952;2024-02-26T05:07:05;1.83;;;1.57;;
83429;SDS011;73362;50.952;6.952;2024-02-26T05:09:34;1.60;;;1.17;;
83429;SDS011;73362;50.952;6.952;2024-02-26T05:12:01;2.60;;;1.10;;
83429;SDS011;73362;50.952;6.952;2024-02-26T05:14:29;1.60;;;1.50;;
83429;SDS011;73362;50.952;6.952;2024-02-26T05:16:57;1.43;;;1.33;;
83429;SDS011;73362;50.952;6.952;2024-02-26T05:19:26;2.67;;;1.40;;
83429;SDS011;73362;50.952;6.952;2024-02-26T05:21:54;1.57;;;1.17;;
83429;SDS011;73362;50.952;6.952;2024-02-26T05:24:22;3.63;;;1.60;;
83429;SDS011;73362;50.952;6.952;2024-02-26T05:26:50;2.17;;;1.20;;
83429;SDS011;73362;50.952;6.952;2024-02-26T05:29:18;1.67;;;1.57;;
83429;SDS011;73362;50.952;6.952;2024-02-26T05:31:46;1.67;;;1.57;;
83429;SDS011;73362;50.952;6.952;2024-02-26T05:34:14;3.60;;;2.50;;
83429;SDS011;73362;50.952;6.952;2024-02-26T05:36:42;2.60;;;1.60;;
83429;SDS011;73362;50.952;6.952;2024-02-26T05:39:10;2.60;;;1.80;;
83429;SDS011;73362;50.952;6.952;2024-02-26T05:41:38;3.17;;;2.63;;
83429;SDS011;73362;50.952;6.952;2024-02-26T05:44:06;3.27;;;2.10;;
83429;SDS011;73362;50.952;6.952;2024-02-26T05:46:34;1.90;;;1.70;;
83429;SDS011;73362;50.952;6.952;2024-02-26T05:49:02;1.53;;;1.40;;
83429;SDS011;73362;50.952;6.952;2024-02-26T05:51:30;2.03;;;1.80;;
83429;SDS011;73362;50.952;6.952;2024-02-26T05:53:58;1.70;;;1.60;;
83429;SDS011;73362;50.952;6.952;2024-02-26T05:56:26;2.47;;;1.40;;
83429;SDS011;73362;50.952;6.952;2024-02-26T05:58:54;2.73;;;1.70;;
83429;SDS011;73362;50.952;6.952;2024-02-26T06:01:22;3.70;;;1.70;;
83429;SDS011;73362;50.952;6.952;2024-02-26T06:03:51;3.40;;;1.77;;
83429;SDS011;73362;50.952;6.952;2024-02-26T06:06:19;1.57;;;1.47;;
83429;SDS011;73362;50.952;6.952;2024-02-26T06:08:47;2.07;;;1.60;;
83429;SDS011;73362;50.952;6.952;2024-02-26T06:11:15;2.33;;;1.90;;
83429;SDS011;73362;50.952;6.952;2024-02-26T06:13:43;1.70;;;1.60;;
83429;SDS011;73362;50.952;6.952;2024-02-26T06:16:11;2.10;;;1.50;;
83429;SDS011;73362;50.952;6.952;2024-02-26T06:18:39;1.67;;;1.57;;
83429;SDS011;73362;50.952;6.952;2024-02-26T06:21:09;1.97;;;1.60;;
83429;SDS011;73362;50.952;6.952;2024-02-26T06:23:38;1.63;;;1.53;;
83429;SDS011;73362;50.952;6.952;2024-02-26T06:26:06;1.70;;;1.60;;
83429;SDS011;73362;50.952;6.952;2024-02-26T06:28:34;2.20;;;1.60;;
83429;SDS011;73362;50.952;6.952;2024-02-26T06:31:02;2.27;;;1.90;;
83429;SDS011;73362;50.952;6.952;2024-02-26T06:33:32;2.03;;;1.93;;
83429;SDS011;73362;50.952;6.952;2024-02-26T06:36:00;2.57;;;2.20;;
83429;SDS011;73362;50.952;6.952;2024-02-26T06:38:28;2.77;;;2.13;;
83429;SDS011;73362;50.952;6.952;2024-02-26T06:40:56;4.37;;;2.40;;
83429;SDS011;73362;50.952;6.952;2024-02-26T06:43:24;7.17;;;2.30;;
83429;SDS011;73362;50.952;6.952;2024-02-26T06:45:52;3.63;;;2.33;;
83429;SDS011;73362;50.952;6.952;2024-02-26T06:48:22;3.97;;;2.30;;
83429;SDS011;73362;50.952;6.952;2024-02-26T06:50:49;2.73;;;2.23;;
83429;SDS011;73362;50.952;6.952;2024-02-26T06:53:17;2.80;;;2.50;;
83429;SDS011;73362;50.952;6.952;2024-02-26T06:55:47;8.13;;;2.57;;
83429;SDS011;73362;50.952;6.952;2024-02-26T06:58:21;2.77;;;2.57;;
83429;SDS011;73362;50.952;6.952;2024-02-26T07:00:49;3.40;;;2.30;;
83429;SDS011;73362;50.952;6.952;2024-02-26T07:03:17;3.17;;;2.53;;
83429;SDS011;73362;50.952;6.952;2024-02-26T07:05:45;3.57;;;2.90;;
83429;SDS011;73362;50.952;6.952;2024-02-26T07:08:13;3.00;;;2.30;;
83429;SDS011;73362;50.952;6.952;2024-02-26T07:10:41;3.83;;;2.80;;
83429;SDS011;73362;50.952;6.952;2024-02-26T07:13:09;4.13;;;2.57;;
83429;SDS011;73362;50.952;6.952;2024-02-26T07:15:37;3.73;;;2.77;;
83429;SDS011;73362;50.952;6.952;2024-02-26T07:18:05;4.43;;;2.60;;
83429;SDS011;73362;50.952;6.952;2024-02-26T07:20:33;4.00;;;2.60;;
83429;SDS011;73362;50.952;6.952;2024-02-26T07:23:01;5.33;;;3.73;;
83429;SDS011;73362;50.952;6.952;2024-02-26T07:25:29;5.20;;;2.90;;
83429;SDS011;73362;50.952;6.952;2024-02-26T07:27:57;3.90;;;2.80;;
83429;SDS011;73362;50.952;6.952;2024-02-26T07:30:25;3.80;;;2.60;;
83429;SDS011;73362;50.952;6.952;2024-02-26T07:32:53;2.57;;;2.37;;
83429;SDS011;73362;50.952;6.952;2024-02-26T07:35:21;2.67;;;2.37;;
83429;SDS011;73362;50.952;6.952;2024-02-26T07:37:49;3.90;;;2.60;;
83429;SDS011;73362;50.952;6.952;2024-02-26T07:40:17;4.80;;;3.13;;
83429;SDS011;73362;50.952;6.952;2024-02-26T07:42:46;3.93;;;3.10;;
83429;SDS011;73362;50.952;6.952;2024-02-26T07:45:14;3.57;;;2.50;;
83429;SDS011;73362;50.952;6.952;2024-02-26T07:47:42;5.53;;;2.80;;
83429;SDS011;73362;50.952;6.952;2024-02-26T07:50:10;2.73;;;2.20;;
83429;SDS011;73362;50.952;6.952;2024-02-26T07:52:38;4.00;;;2.60;;
83429;SDS011;73362;50.952;6.952;2024-02-26T07:55:06;3.97;;;2.50;;
83429;SDS011;73362;50.952;6.952;2024-02-26T07:57:34;5.67;;;2.80;;
83429;SDS011;73362;50.952;6.952;2024-02-26T08:00:03;4.80;;;2.60;;
83429;SDS011;73362;50.952;6.952;2024-02-26T08:02:31;2.47;;;2.07;;
83429;SDS011;73362;50.952;6.952;2024-02-26T08:04:58;3.50;;;2.43;;
83429;SDS011;73362;50.952;6.952;2024-02-26T08:07:26;3.20;;;2.17;;
83429;SDS011;73362;50.952;6.952;2024-02-26T08:09:54;4.13;;;2.37;;
83429;SDS011;73362;50.952;6.952;2024-02-26T08:12:22;4.53;;;2.77;;
83429;SDS011;73362;50.952;6.952;2024-02-26T08:14:51;5.13;;;2.40;;
83429;SDS011;73362;50.952;6.952;2024-02-26T08:17:19;2.80;;;2.47;;
83429;SDS011;73362;50.952;6.952;2024-02-26T08:19:47;3.47;;;2.50;;
83429;SDS011;73362;50.952;6.952;2024-02-26T08:22:15;3.53;;;2.60;;
83429;SDS011;73362;50.952;6.952;2024-02-26T08:24:44;2.70;;;1.90;;
83429;SDS011;73362;50.952;6.952;2024-02-26T08:27:12;2.27;;;2.07;;
83429;SDS011;73362;50.952;6.952;2024-02-26T08:29:40;2.20;;;2.00;;
83429;SDS011;73362;50.952;6.952;2024-02-26T08:32:08;3.03;;;2.13;;
83429;SDS011;73362;50.952;6.952;2024-02-26T08:34:36;2.90;;;2.30;;
83429;SDS011;73362;50.952;6.952;2024-02-26T08:37:04;2.20;;;2.00;;
83429;SDS011;73362;50.952;6.952;2024-02-26T08:39:32;2.53;;;2.13;;
83429;SDS011;73362;50.952;6.952;2024-02-26T08:42:00;2.90;;;2.23;;
83429;SDS011;73362;50.952;6.952;2024-02-26T08:44:28;3.43;;;2.40;;
83429;SDS011;73362;50.952;6.952;2024-02-26T08:46:56;3.47;;;2.30;;
83429;SDS011;73362;50.952;6.952;2024-02-26T08:49:24;2.43;;;2.23;;
83429;SDS011;73362;50.952;6.952;2024-02-26T08:51:52;3.43;;;2.80;;
83429;SDS011;73362;50.952;6.952;2024-02-26T08:54:20;2.43;;;1.97;;
83429;SDS011;73362;50.952;6.952;2024-02-26T08:56:48;3.40;;;2.30;;
83429;SDS011;73362;50.952;6.952;2024-02-26T08:59:16;8.47;;;3.60;;
83429;SDS011;73362;50.952;6.952;2024-02-26T09:01:44;3.50;;;2.13;;
83429;SDS011;73362;50.952;6.952;2024-02-26T09:04:12;3.17;;;2.50;;
83429;SDS011;73362;50.952;6.952;2024-02-26T09:06:40;2.60;;;2.40;;
83429;SDS011;73362;50.952;6.952;2024-02-26T09:09:09;2.93;;;2.57;;
83429;SDS011;73362;50.952;6.952;2024-02-26T09:11:37;3.27;;;2.53;;
83429;SDS011;73362;50.952;6.952;2024-02-26T09:14:05;3.93;;;2.63;;
83429;SDS011;73362;50.952;6.952;2024-02-26T09:16:33;3.10;;;2.40;;
83429;SDS011;73362;50.952;6.952;2024-02-26T09:19:01;5.60;;;3.53;;
83429;SDS011;73362;50.952;6.952;2024-02-26T09:21:29;3.97;;;3.20;;
83429;SDS011;73362;50.952;6.952;2024-02-26T09:23:57;3.13;;;2.53;;
83429;SDS011;73362;50.952;6.952;2024-02-26T09:26:25;3.17;;;2.63;;
83429;SDS011;73362;50.952;6.952;2024-02-26T09:28:53;3.23;;;2.63;;
83429;SDS011;73362;50.952;6.952;2024-02-26T09:31:21;4.10;;;3.00;;
83429;SDS011;73362;50.952;6.952;2024-02-26T09:33:49;5.33;;;3.27;;
83429;SDS011;73362;50.952;6.952;2024-02-26T09:36:17;5.73;;;2.80;;
83429;SDS011;73362;50.952;6.952;2024-02-26T09:38:45;5.70;;;2.73;;
83429;SDS011;73362;50.952;6.952;2024-02-26T09:41:14;4.27;;;2.97;;
83429;SDS011;73362;50.952;6.952;2024-02-26T09:43:43;5.70;;;2.83;;
83429;SDS011;73362;50.952;6.952;2024-02-26T09:46:10;4.10;;;2.97;;
83429;SDS011;73362;50.952;6.952;2024-02-26T09:48:38;3.63;;;2.63;;
83429;SDS011;73362;50.952;6.952;2024-02-26T09:51:06;3.30;;;2.60;;
83429;SDS011;73362;50.952;6.952;2024-02-26T09:53:34;3.23;;;2.80;;
83429;SDS011;73362;50.952;6.952;2024-02-26T09:56:02;3.90;;;2.63;;
83429;SDS011;73362;50.952;6.952;2024-02-26T09:58:30;6.00;;;2.73;;
83429;SDS011;73362;50.952;6.952;2024-02-26T10:00:58;4.10;;;3.20;;
83429;SDS011;73362;50.952;6.952;2024-02-26T10:03:28;3.70;;;2.77;;
83429;SDS011;73362;50.952;6.952;2024-02-26T10:05:54;6.40;;;3.03;;
83429;SDS011;73362;50.952;6.952;2024-02-26T10:08:22;5.93;;;2.70;;
83429;SDS011;73362;50.952;6.952;2024-02-26T10:10:50;6.43;;;2.60;;
83429;SDS011;73362;50.952;6.952;2024-02-26T10:13:18;3.30;;;2.60;;
83429;SDS011;73362;50.952;6.952;2024-02-26T10:15:46;4.07;;;2.77;;
83429;SDS011;73362;50.952;6.952;2024-02-26T10:18:14;4.63;;;2.73;;
83429;SDS011;73362;50.952;6.952;2024-02-26T10:20:42;3.00;;;2.70;;
83429;SDS011;73362;50.952;6.952;2024-02-26T10:23:10;4.73;;;3.10;;
83429;SDS011;73362;50.952;6.952;2024-02-26T10:25:43;4.73;;;3.20;;
83429;SDS011;73362;50.952;6.952;2024-02-26T10:28:06;4.13;;;3.30;;
83429;SDS011;73362;50.952;6.952;2024-02-26T10:30:36;5.93;;;3.50;;
83429;SDS011;73362;50.952;6.952;2024-02-26T10:33:03;4.60;;;3.30;;
83429;SDS011;73362;50.952;6.952;2024-02-26T10:35:31;3.47;;;3.07;;
83429;SDS011;73362;50.952;6.952;2024-02-26T10:37:59;4.27;;;2.90;;
83429;SDS011;73362;50.952;6.952;2024-02-26T10:40:27;4.63;;;3.17;;
83429;SDS011;73362;50.952;6.952;2024-02-26T10:42:55;4.87;;;3.97;;
83429;SDS011;73362;50.952;6.952;2024-02-26T10:45:23;7.17;;;3.93;;
83429;SDS011;73362;50.952;6.952;2024-02-26T10:47:51;5.53;;;3.43;;
83429;SDS011;73362;50.952;6.952;2024-02-26T10:50:19;3.90;;;3.27;;
83429;SDS011;73362;50.952;6.952;2024-02-26T10:52:47;3.97;;;2.93;;
83429;SDS011;73362;50.952;6.952;2024-02-26T10:55:16;5.73;;;3.47;;
83429;SDS011;73362;50.952;6.952;2024-02-26T10:57:43;5.33;;;3.13;;
83429;SDS011;73362;50.952;6.952;2024-02-26T11:00:13;3.93;;;3.20;;
83429;SDS011;73362;50.952;6.952;2024-02-26T11:02:39;4.70;;;3.50;;
83429;SDS011;73362;50.952;6.952;2024-02-26T11:05:07;4.50;;;3.10;;
83429;SDS011;73362;50.952;6.952;2024-02-26T11:07:35;5.17;;;3.90;;
83429;SDS011;73362;50.952;6.952;2024-02-26T11:10:04;4.63;;;4.13;;
83429;SDS011;73362;50.952;6.952;2024-02-26T11:12:33;7.57;;;3.97;;
83429;SDS011;73362;50.952;6.952;2024-02-26T11:15:00;4.43;;;3.80;;
83429;SDS011;73362;50.952;6.952;2024-02-26T11:17:28;3.70;;;3.30;;
83429;SDS011;73362;50.952;6.952;2024-02-26T11:19:59;3.60;;;3.30;;
83429;SDS011;73362;50.952;6.952;2024-02-26T11:22:26;3.60;;;3.30;;
83429;SDS011;73362;50.952;6.952;2024-02-26T11:24:55;5.83;;;3.30;;
83429;SDS011;73362;50.952;6.952;2024-02-26T11:27:25;5.33;;;2.97;;
83429;SDS011;73362;50.952;6.952;2024-02-26T11:29:52;2.90;;;2.60;;
83429;SDS011;73362;50.952;6.952;2024-02-26T11:32:20;4.00;;;3.03;;
83429;SDS011;73362;50.952;6.952;2024-02-26T11:34:48;3.83;;;3.07;;
83429;SDS011;73362;50.952;6.952;2024-02-26T11:37:16;5.83;;;2.83;;
83429;SDS011;73362;50.952;6.952;2024-02-26T11:39:45;3.17;;;2.70;;
83429;SDS011;73362;50.952;6.952;2024-02-26T11:42:14;4.30;;;3.30;;
83429;SDS011;73362;50.952;6.952;2024-02-26T11:44:42;4.67;;;3.17;;
83429;SDS011;73362;50.952;6.952;2024-02-26T11:47:10;3.50;;;3.07;;
83429;SDS011;73362;50.952;6.952;2024-02-26T11:49:38;4.93;;;2.93;;
83429;SDS011;73362;50.952;6.952;2024-02-26T11:52:08;5.60;;;3.00;;
83429;SDS011;73362;50.952;6.952;2024-02-26T11:54:46;4.90;;;3.73;;
83429;SDS011;73362;50.952;6.952;2024-02-26T11:57:20;5.23;;;4.47;;
83429;SDS011;73362;50.952;6.952;2024-02-26T11:59:48;4.63;;;3.80;;
83429;SDS011;73362;50.952;6.952;2024-02-26T12:04:50;3.60;;;3.30;;
83429;SDS011;73362;50.952;6.952;2024-02-26T12:07:18;4.63;;;3.60;;
83429;SDS011;73362;50.952;6.952;2024-02-26T12:09:46;4.53;;;3.93;;
83429;SDS011;73362;50.952;6.952;2024-02-26T12:12:17;5.43;;;3.73;;
83429;SDS011;73362;50.952;6.952;2024-02-26T12:17:19;3.63;;;3.20;;
83429;SDS011;73362;50.952;6.952;2024-02-26T12:19:46;5.40;;;3.27;;
83429;SDS011;73362;50.952;6.952;2024-02-26T12:22:14;4.33;;;3.30;;
83429;SDS011;73362;50.952;6.952;2024-02-26T12:24:43;5.87;;;3.23;;
83429;SDS011;73362;50.952;6.952;2024-02-26T12:27:11;5.07;;;3.33;;
83429;SDS011;73362;50.952;6.952;2024-02-26T12:29:39;5.30;;;3.70;;
83429;SDS011;73362;50.952;6.952;2024-02-26T12:32:07;4.97;;;3.30;;
83429;SDS011;73362;50.952;6.952;2024-02-26T12:34:35;5.30;;;3.10;;
83429;SDS011;73362;50.952;6.952;2024-02-26T12:37:03;4.27;;;3.10;;
83429;SDS011;73362;50.952;6.952;2024-02-26T12:39:31;3.87;;;3.50;;
83429;SDS011;73362;50.952;6.952;2024-02-26T12:41:59;4.50;;;3.40;;
83429;SDS011;73362;50.952;6.952;2024-02-26T12:44:27;5.30;;;3.93;;
83429;SDS011;73362;50.952;6.952;2024-02-26T12:47:00;5.97;;;3.70;;
83429;SDS011;73362;50.952;6.952;2024-02-26T12:49:28;5.10;;;3.77;;
83429;SDS011;73362;50.952;6.952;2024-02-26T12:51:56;5.50;;;3.90;;
83429;SDS011;73362;50.952;6.952;2024-02-26T12:54:24;5.17;;;4.20;;
83429;SDS011;73362;50.952;6.952;2024-02-26T12:56:52;5.97;;;4.07;;
83429;SDS011;73362;50.952;6.952;2024-02-26T12:59:20;10.13;;;4.20;;
83429;SDS011;73362;50.952;6.952;2024-02-26T13:01:48;4.53;;;3.60;;
83429;SDS011;73362;50.952;6.952;2024-02-26T13:04:16;4.40;;;3.37;;
83429;SDS011;73362;50.952;6.952;2024-02-26T13:06:44;4.90;;;3.27;;
83429;SDS011;73362;50.952;6.952;2024-02-26T13:09:12;5.90;;;3.57;;
83429;SDS011;73362;50.952;6.952;2024-02-26T13:11:40;5.87;;;3.10;;
83429;SDS011;73362;50.952;6.952;2024-02-26T13:14:10;5.60;;;3.40;;
83429;SDS011;73362;50.952;6.952;2024-02-26T13:16:36;9.50;;;7.17;;
83429;SDS011;73362;50.952;6.952;2024-02-26T13:19:09;3.87;;;3.50;;
83429;SDS011;73362;50.952;6.952;2024-02-26T13:21:37;4.00;;;3.60;;
83429;SDS011;73362;50.952;6.952;2024-02-26T13:24:05;5.17;;;3.30;;
83429;SDS011;73362;50.952;6.952;2024-02-26T13:26:33;4.03;;;3.10;;
83429;SDS011;73362;50.952;6.952;2024-02-26T13:29:01;3.57;;;3.07;;
83429;SDS011;73362;50.952;6.952;2024-02-26T13:31:29;5.17;;;3.20;;
83429;SDS011;73362;50.952;6.952;2024-02-26T13:33:57;4.80;;;3.43;;
83429;SDS011;73362;50.952;6.952;2024-02-26T13:36:25;3.93;;;3.53;;
83429;SDS011;73362;50.952;6.952;2024-02-26T13:38:53;4.03;;;3.37;;
83429;SDS011;73362;50.952;6.952;2024-02-26T13:41:21;3.70;;;3.40;;
83429;SDS011;73362;50.952;6.952;2024-02-26T13:43:50;4.07;;;3.60;;
83429;SDS011;73362;50.952;6.952;2024-02-26T13:46:17;4.53;;;3.57;;
83429;SDS011;73362;50.952;6.952;2024-02-26T13:48:45;5.60;;;4.10;;
83429;SDS011;73362;50.952;6.952;2024-02-26T13:51:14;4.73;;;4.00;;
83429;SDS011;73362;50.952;6.952;2024-02-26T13:53:42;4.40;;;3.57;;
83429;SDS011;73362;50.952;6.952;2024-02-26T13:56:10;4.47;;;3.90;;
83429;SDS011;73362;50.952;6.952;2024-02-26T13:58:38;4.97;;;3.90;;
83429;SDS011;73362;50.952;6.952;2024-02-26T14:01:06;5.67;;;4.30;;
83429;SDS011;73362;50.952;6.952;2024-02-26T14:03:34;5.47;;;4.20;;
83429;SDS011;73362;50.952;6.952;2024-02-26T14:06:02;8.43;;;4.57;;
83429;SDS011;73362;50.952;6.952;2024-02-26T14:08:30;9.47;;;6.50;;
83429;SDS011;73362;50.952;6.952;2024-02-26T14:10:58;5.20;;;3.97;;
83429;SDS011;73362;50.952;6.952;2024-02-26T14:13:26;4.70;;;4.00;;
83429;SDS011;73362;50.952;6.952;2024-02-26T14:15:54;4.90;;;4.13;;
83429;SDS011;73362;50.952;6.952;2024-02-26T14:18:22;5.10;;;4.50;;
83429;SDS011;73362;50.952;6.952;2024-02-26T14:20:50;4.83;;;4.33;;
83429;SDS011;73362;50.952;6.952;2024-02-26T14:23:18;7.57;;;4.70;;
83429;SDS011;73362;50.952;6.952;2024-02-26T14:25:46;6.77;;;4.40;;
83429;SDS011;73362;50.952;6.952;2024-02-26T14:28:14;6.13;;;4.63;;
83429;SDS011;73362;50.952;6.952;2024-02-26T14:30:42;5.90;;;4.43;;
83429;SDS011;73362;50.952;6.952;2024-02-26T14:33:10;5.80;;;4.43;;
83429;SDS011;73362;50.952;6.952;2024-02-26T14:35:38;5.17;;;4.43;;
83429;SDS011;73362;50.952;6.952;2024-02-26T14:38:06;7.43;;;4.90;;
83429;SDS011;73362;50.952;6.952;2024-02-26T14:40:34;7.30;;;5.23;;
83429;SDS011;73362;50.952;6.952;2024-02-26T14:43:02;9.23;;;5.57;;
83429;SDS011;73362;50.952;6.952;2024-02-26T14:45:30;5.57;;;5.03;;
83429;SDS011;73362;50.952;6.952;2024-02-26T14:47:58;6.83;;;5.07;;
83429;SDS011;73362;50.952;6.952;2024-02-26T14:50:26;6.93;;;5.40;;
83429;SDS011;73362;50.952;6.952;2024-02-26T14:52:54;7.57;;;5.13;;
83429;SDS011;73362;50.952;6.952;2024-02-26T14:55:23;10.13;;;7.83;;
83429;SDS011;73362;50.952;6.952;2024-02-26T14:57:51;9.73;;;7.73;;